createdAt,value
2023-03-24T00:00:21.635Z,2.80
2023-03-24T00:02:48.745Z,2.38
2023-03-24T00:05:16.627Z,3.67
2023-03-24T00:07:43.451Z,3.30
2023-03-24T00:10:11.471Z,4.25
2023-03-24T00:12:38.419Z,4.78
2023-03-24T00:15:08.536Z,3.15
2023-03-24T00:17:36.083Z,3.45
2023-03-24T00:20:07.546Z,2.75
2023-03-24T00:22:34.569Z,2.25
2023-03-24T00:25:04.124Z,3.13
2023-03-24T00:27:30.960Z,4.13
2023-03-24T00:29:59.465Z,2.97
2023-03-24T00:32:27.229Z,2.33
2023-03-24T00:34:54.289Z,3.08
2023-03-24T00:37:20.705Z,2.40
2023-03-24T00:39:46.967Z,2.35
2023-03-24T00:42:13.729Z,2.33
2023-03-24T00:44:40.048Z,2.55
2023-03-24T00:47:06.404Z,2.50
2023-03-24T00:49:42.587Z,2.53
2023-03-24T00:52:09.981Z,2.28
2023-03-24T00:54:37.583Z,3.47
2023-03-24T00:57:05.016Z,3.45
2023-03-24T00:59:31.381Z,2.83
2023-03-24T01:01:57.899Z,4.00
2023-03-24T01:04:26.493Z,2.75
2023-03-24T01:06:54.602Z,2.10
2023-03-24T01:09:23.530Z,3.30
2023-03-24T01:11:50.730Z,1.92
2023-03-24T01:14:17.073Z,2.58
2023-03-24T01:16:43.450Z,2.58
2023-03-24T01:19:10.463Z,3.25
2023-03-24T01:21:37.405Z,1.95
2023-03-24T01:24:05.271Z,3.50
2023-03-24T01:26:31.870Z,4.25
2023-03-24T01:28:58.484Z,3.28
2023-03-24T01:31:24.793Z,4.30
2023-03-24T01:33:51.530Z,2.40
2023-03-24T01:36:17.976Z,3.25
2023-03-24T01:38:44.311Z,2.50
2023-03-24T01:41:10.644Z,2.25
2023-03-24T01:43:37.011Z,3.38
2023-03-24T01:46:14.320Z,3.10
2023-03-24T01:48:49.763Z,2.17
2023-03-24T01:51:16.276Z,2.80
2023-03-24T01:53:45.331Z,2.95
2023-03-24T01:56:12.259Z,2.20
2023-03-24T01:58:41.289Z,2.22
2023-03-24T02:01:07.694Z,2.83
2023-03-24T02:03:38.629Z,2.38
2023-03-24T02:06:05.092Z,2.20
2023-03-24T02:08:34.344Z,2.75
2023-03-24T02:11:01.517Z,4.07
2023-03-24T02:13:27.902Z,2.45
2023-03-24T02:16:06.721Z,3.05
2023-03-24T02:18:52.722Z,2.20
2023-03-24T02:21:22.171Z,3.53
2023-03-24T02:24:07.025Z,2.50
2023-03-24T02:26:33.310Z,3.05
2023-03-24T02:29:05.370Z,4.35
2023-03-24T02:31:50.829Z,2.95
2023-03-24T02:34:31.759Z,3.53
2023-03-24T02:37:08.572Z,2.85
2023-03-24T02:39:53.538Z,2.97
2023-03-24T02:42:22.851Z,2.95
2023-03-24T02:45:12.784Z,2.80
2023-03-24T02:47:45.170Z,5.60
2023-03-24T02:50:18.381Z,2.20
2023-03-24T02:53:11.152Z,2.88
2023-03-24T02:55:52.581Z,2.45
2023-03-24T02:58:28.127Z,3.55
2023-03-24T03:01:02.867Z,3.30
2023-03-24T03:03:34.396Z,2.90
2023-03-24T03:06:18.893Z,2.70
2023-03-24T03:08:47.621Z,3.50
2023-03-24T03:11:15.361Z,3.67
2023-03-24T03:13:49.813Z,2.90
2023-03-24T03:16:19.462Z,2.53
2023-03-24T03:18:51.774Z,2.67
2023-03-24T03:21:19.740Z,3.10
2023-03-24T03:23:49.752Z,3.33
2023-03-24T03:26:17.994Z,1.92
2023-03-24T03:28:50.177Z,3.83
2023-03-24T03:31:19.138Z,2.63
2023-03-24T03:33:52.807Z,3.33
2023-03-24T03:36:21.990Z,2.80
2023-03-24T03:38:51.035Z,2.20
2023-03-24T03:41:18.414Z,2.08
2023-03-24T03:43:45.775Z,2.70
2023-03-24T03:46:12.238Z,2.97
2023-03-24T03:48:39.353Z,2.83
2023-03-24T03:51:13.690Z,2.92
2023-03-24T03:53:46.549Z,2.17
2023-03-24T03:56:13.357Z,3.50
2023-03-24T03:58:42.316Z,1.92
2023-03-24T04:01:10.686Z,2.80
2023-03-24T04:03:51.571Z,2.30
2023-03-24T04:06:22.306Z,2.10
2023-03-24T04:08:50.229Z,2.33
2023-03-24T04:11:31.325Z,2.63
2023-03-24T04:14:09.773Z,2.10
2023-03-24T04:16:39.969Z,2.55
2023-03-24T04:19:18.256Z,3.08
2023-03-24T04:22:03.017Z,2.95
2023-03-24T04:24:50.071Z,1.80
2023-03-24T04:27:49.021Z,3.22
2023-03-24T04:30:23.093Z,2.17
2023-03-24T04:32:52.185Z,2.25
2023-03-24T04:35:31.725Z,2.05
2023-03-24T04:38:04.541Z,1.92
2023-03-24T04:40:33.060Z,4.18
2023-03-24T04:43:01.473Z,3.15
2023-03-24T04:45:28.157Z,2.17
2023-03-24T04:47:56.950Z,1.42
2023-03-24T04:50:34.295Z,2.63
2023-03-24T04:53:00.855Z,2.03
2023-03-24T04:55:46.241Z,2.20
2023-03-24T04:58:12.690Z,1.75
2023-03-24T05:00:39.284Z,3.55
2023-03-24T05:03:05.611Z,3.90
2023-03-24T05:05:31.950Z,2.80
2023-03-24T05:07:58.307Z,1.60
2023-03-24T05:10:24.671Z,2.22
2023-03-24T05:12:51.025Z,3.45
2023-03-24T05:15:17.780Z,2.97
2023-03-24T05:17:44.234Z,3.40
2023-03-24T05:20:10.793Z,2.33
2023-03-24T05:22:37.661Z,3.42
2023-03-24T05:25:04.388Z,2.92
2023-03-24T05:27:30.875Z,2.90
2023-03-24T05:29:57.158Z,5.28
2023-03-24T05:32:23.712Z,3.42
2023-03-24T05:34:50.324Z,3.65
2023-03-24T05:37:18.032Z,3.70
2023-03-24T05:39:44.351Z,2.88
2023-03-24T05:42:11.151Z,3.70
2023-03-24T05:44:37.484Z,2.55
2023-03-24T05:47:04.321Z,3.30
2023-03-24T05:49:30.567Z,5.18
2023-03-24T05:51:56.870Z,2.55
2023-03-24T05:54:23.825Z,5.35
2023-03-24T05:56:50.273Z,4.35
2023-03-24T05:59:17.089Z,2.60
2023-03-24T06:01:43.346Z,3.67
2023-03-24T06:04:09.699Z,3.53
2023-03-24T06:06:38.282Z,6.80
2023-03-24T06:09:05.138Z,4.30
2023-03-24T06:11:31.517Z,3.00
2023-03-24T06:14:00.281Z,3.47
2023-03-24T06:16:27.175Z,3.03
2023-03-24T06:18:53.532Z,5.65
2023-03-24T06:21:22.820Z,6.00
2023-03-24T06:23:49.124Z,3.83
2023-03-24T06:26:16.710Z,2.88
2023-03-24T06:28:43.097Z,3.80
2023-03-24T06:31:14.955Z,3.75
2023-03-24T06:33:42.556Z,5.18
2023-03-24T06:36:09.647Z,5.22
2023-03-24T06:38:35.991Z,5.97
2023-03-24T06:41:03.514Z,3.58
2023-03-24T06:43:30.074Z,3.97
2023-03-24T06:45:56.422Z,3.83
2023-03-24T06:48:23.334Z,7.07
2023-03-24T06:50:49.763Z,3.58
2023-03-24T06:53:16.531Z,4.15
2023-03-24T06:55:43.052Z,3.58
2023-03-24T06:58:10.365Z,4.97
2023-03-24T07:00:36.939Z,6.18
2023-03-24T07:03:03.425Z,4.47
2023-03-24T07:05:29.779Z,5.70
2023-03-24T07:10:25.531Z,5.00
2023-03-24T07:12:51.825Z,3.08
2023-03-24T07:15:18.144Z,3.92
2023-03-24T07:17:44.462Z,6.43
2023-03-24T07:20:10.981Z,4.97
2023-03-24T07:22:37.404Z,5.22
2023-03-24T07:25:04.910Z,4.53
2023-03-24T07:27:32.792Z,4.18
2023-03-24T07:29:59.844Z,6.95
2023-03-24T07:32:26.445Z,7.57
2023-03-24T07:34:52.993Z,6.75
2023-03-24T07:37:19.411Z,6.18
2023-03-24T07:39:45.731Z,7.22
2023-03-24T07:42:13.083Z,8.95
2023-03-24T07:44:39.496Z,11.07
2023-03-24T07:47:06.120Z,8.13
2023-03-24T07:49:32.453Z,12.32
2023-03-24T07:51:59.164Z,11.13
2023-03-24T07:54:26.456Z,9.90
2023-03-24T07:56:52.852Z,12.82
2023-03-24T07:59:19.459Z,8.30
2023-03-24T08:01:47.782Z,7.70
2023-03-24T08:04:15.007Z,8.32
2023-03-24T08:06:43.347Z,7.20
2023-03-24T08:09:11.349Z,8.43
2023-03-24T08:11:38.101Z,9.23
2023-03-24T08:14:04.533Z,10.35
2023-03-24T08:16:31.041Z,7.50
2023-03-24T08:19:00.561Z,12.77
2023-03-24T08:21:27.028Z,8.63
2023-03-24T08:23:53.389Z,8.77
2023-03-24T08:26:19.673Z,9.93
2023-03-24T08:28:45.987Z,10.23
2023-03-24T08:31:12.531Z,7.03
2023-03-24T08:33:38.897Z,10.38
2023-03-24T08:36:05.400Z,9.93
2023-03-24T08:38:31.875Z,9.60
2023-03-24T08:40:59.068Z,10.02
2023-03-24T08:43:25.481Z,7.22
2023-03-24T08:45:51.816Z,6.68
2023-03-24T08:48:18.109Z,9.20
2023-03-24T08:50:44.422Z,7.68
2023-03-24T08:53:13.802Z,7.93
2023-03-24T08:55:43.075Z,8.63
2023-03-24T08:58:13.910Z,7.70
2023-03-24T09:00:40.529Z,7.55
2023-03-24T09:03:06.964Z,8.05
2023-03-24T09:05:43.988Z,7.00
2023-03-24T09:08:12.294Z,8.45
2023-03-24T09:10:39.173Z,8.38
2023-03-24T09:13:05.633Z,6.18
2023-03-24T09:15:32.234Z,6.75
2023-03-24T09:17:58.770Z,5.38
2023-03-24T09:20:25.659Z,12.00
2023-03-24T09:22:52.315Z,6.38
2023-03-24T09:25:20.256Z,5.50
2023-03-24T09:27:47.144Z,6.45
2023-03-24T09:30:14.460Z,6.22
2023-03-24T09:32:40.919Z,7.45
2023-03-24T09:35:08.513Z,5.45
2023-03-24T09:37:35.467Z,7.38
2023-03-24T09:40:02.296Z,5.78
2023-03-24T09:42:30.272Z,9.05
2023-03-24T09:45:01.235Z,6.28
2023-03-24T09:47:36.410Z,7.38
2023-03-24T09:50:06.502Z,4.68
2023-03-24T09:52:39.888Z,6.72
2023-03-24T09:55:11.960Z,6.70
2023-03-24T09:57:39.444Z,4.72
2023-03-24T10:00:26.346Z,5.13
2023-03-24T10:02:54.823Z,5.55
2023-03-24T10:05:22.491Z,5.47
2023-03-24T10:08:00.288Z,5.30
2023-03-24T10:10:27.319Z,6.55
2023-03-24T10:12:54.516Z,7.43
2023-03-24T10:15:30.903Z,7.28
2023-03-24T10:18:12.647Z,5.95
2023-03-24T10:20:42.639Z,4.78
2023-03-24T10:23:29.736Z,6.13
2023-03-24T10:26:17.708Z,6.75
2023-03-24T10:28:44.056Z,8.65
2023-03-24T10:31:11.655Z,4.53
2023-03-24T10:33:39.562Z,5.68
2023-03-24T10:36:18.885Z,3.72
2023-03-24T10:38:45.459Z,7.55
2023-03-24T10:41:32.037Z,7.45
2023-03-24T10:46:26.744Z,6.70
2023-03-24T10:48:54.658Z,3.75
2023-03-24T10:51:26.555Z,6.32
2023-03-24T10:54:11.143Z,6.53
2023-03-24T10:56:39.441Z,6.93
2023-03-24T10:59:18.870Z,5.28
2023-03-24T11:01:45.411Z,4.68
2023-03-24T11:04:14.066Z,4.95
2023-03-24T11:06:54.444Z,5.07
2023-03-24T11:09:22.075Z,5.38
2023-03-24T11:11:49.219Z,6.18
2023-03-24T11:14:24.113Z,4.38
2023-03-24T11:16:50.916Z,4.30
2023-03-24T11:19:20.919Z,5.25
2023-03-24T11:21:49.621Z,5.45
2023-03-24T11:24:16.938Z,7.57
2023-03-24T11:26:55.693Z,4.80
2023-03-24T11:29:24.208Z,6.50
2023-03-24T11:31:55.238Z,5.05
2023-03-24T11:34:24.610Z,4.38
2023-03-24T11:36:51.180Z,5.43
2023-03-24T11:39:17.703Z,5.95
2023-03-24T11:41:50.763Z,5.35
2023-03-24T11:44:24.484Z,6.85
2023-03-24T11:46:53.221Z,4.40
2023-03-24T11:49:21.171Z,5.75
2023-03-24T11:51:49.731Z,5.32
2023-03-24T11:54:17.314Z,6.82
2023-03-24T11:56:48.426Z,4.82
2023-03-24T11:59:21.597Z,4.25
2023-03-24T12:01:57.372Z,6.72
2023-03-24T12:04:25.161Z,6.93
2023-03-24T12:07:00.373Z,5.40
2023-03-24T12:09:33.314Z,7.23
2023-03-24T12:12:19.690Z,4.43
2023-03-24T12:14:51.087Z,5.43
2023-03-24T12:17:21.748Z,5.60
2023-03-24T12:20:02.322Z,5.32
2023-03-24T12:22:31.947Z,6.03
2023-03-24T12:25:17.129Z,5.53
2023-03-24T12:27:53.201Z,5.57
2023-03-24T12:30:31.338Z,7.22
2023-03-24T12:33:15.420Z,5.13
2023-03-24T12:36:00.870Z,5.40
2023-03-24T12:38:33.179Z,4.75
2023-03-24T12:41:11.716Z,6.93
2023-03-24T12:43:56.842Z,4.68
2023-03-24T12:46:47.981Z,6.30
2023-03-24T12:49:18.343Z,4.70
2023-03-24T12:51:52.756Z,6.03
2023-03-24T12:54:19.086Z,6.55
2023-03-24T12:56:48.774Z,8.27
2023-03-24T12:59:21.988Z,5.53
2023-03-24T13:01:51.600Z,4.18
2023-03-24T13:04:22.599Z,5.45
2023-03-24T13:06:56.544Z,4.38
2023-03-24T13:09:25.638Z,4.75
2023-03-24T13:11:56.320Z,4.57
2023-03-24T13:14:25.364Z,3.33
2023-03-24T13:16:54.856Z,4.50
2023-03-24T13:19:23.225Z,5.32
2023-03-24T13:21:50.753Z,4.30
2023-03-24T13:24:17.613Z,2.78
2023-03-24T13:26:57.752Z,4.95
2023-03-24T13:29:50.137Z,3.28
2023-03-24T13:32:28.974Z,3.90
2023-03-24T13:34:58.010Z,5.10
2023-03-24T13:37:36.271Z,6.03
2023-03-24T13:40:07.278Z,4.28
2023-03-24T13:42:35.810Z,4.00
2023-03-24T13:45:06.581Z,4.38
2023-03-24T13:47:51.550Z,2.88
2023-03-24T13:50:17.963Z,2.90
2023-03-24T13:52:46.257Z,5.75
2023-03-24T13:55:21.340Z,4.22
2023-03-24T13:57:53.834Z,3.60
2023-03-24T14:00:22.111Z,3.05
2023-03-24T14:02:49.809Z,4.45
2023-03-24T14:05:22.339Z,2.42
2023-03-24T14:07:49.843Z,4.88
2023-03-24T14:10:16.641Z,4.50
2023-03-24T14:12:52.014Z,4.03
2023-03-24T14:15:19.865Z,3.97
2023-03-24T14:17:48.107Z,3.55
2023-03-24T14:20:25.736Z,3.72
2023-03-24T14:22:53.153Z,3.38
2023-03-24T14:25:28.129Z,4.10
2023-03-24T14:28:06.400Z,4.65
2023-03-24T14:30:38.023Z,3.85
2023-03-24T14:33:05.058Z,3.95
2023-03-24T14:35:45.103Z,3.47
2023-03-24T14:38:14.391Z,4.55
2023-03-24T14:40:49.530Z,4.07
2023-03-24T14:43:17.544Z,3.38
2023-03-24T14:45:57.879Z,3.95
2023-03-24T14:48:37.931Z,4.55
2023-03-24T14:51:27.161Z,6.57
2023-03-24T14:53:57.723Z,3.97
2023-03-24T14:56:24.294Z,4.22
2023-03-24T14:58:51.741Z,3.83
2023-03-24T15:01:18.194Z,5.10
2023-03-24T15:03:52.016Z,3.67
2023-03-24T15:06:25.455Z,3.40
2023-03-24T15:08:52.897Z,2.53
2023-03-24T15:11:21.973Z,3.75
2023-03-24T15:13:49.741Z,3.25
2023-03-24T15:16:19.314Z,3.95
2023-03-24T15:18:58.114Z,4.15
2023-03-24T15:21:33.417Z,2.05
2023-03-24T15:24:01.205Z,2.45
2023-03-24T15:26:28.800Z,2.85
2023-03-24T15:28:59.782Z,1.83
2023-03-24T15:31:30.392Z,2.92
2023-03-24T15:34:06.661Z,3.05
2023-03-24T15:38:59.722Z,3.00
2023-03-24T15:41:26.025Z,3.13
2023-03-24T15:43:53.462Z,2.60
2023-03-24T15:46:22.412Z,2.03
2023-03-24T15:48:48.844Z,1.90
2023-03-24T15:51:15.435Z,2.60
2023-03-24T15:53:44.367Z,4.13
2023-03-24T15:56:17.964Z,1.70
2023-03-24T15:58:47.808Z,2.55
2023-03-24T16:01:17.345Z,1.70
2023-03-24T16:03:45.045Z,1.90
2023-03-24T16:06:15.380Z,2.83
2023-03-24T16:08:43.018Z,2.47
2023-03-24T16:11:13.590Z,2.10
2023-03-24T16:13:40.960Z,2.33
2023-03-24T16:16:13.458Z,2.50
2023-03-24T16:18:41.277Z,2.65
2023-03-24T16:21:18.408Z,1.65
2023-03-24T16:23:45.193Z,3.22
2023-03-24T16:26:14.366Z,3.67
2023-03-24T16:28:40.741Z,1.63
2023-03-24T16:31:07.529Z,2.90
2023-03-24T16:33:33.976Z,1.92
2023-03-24T16:36:00.582Z,2.65
2023-03-24T16:38:27.286Z,1.55
2023-03-24T16:40:54.608Z,2.85
2023-03-24T16:43:21.432Z,2.00
2023-03-24T16:45:48.422Z,7.10
2023-03-24T16:48:15.550Z,3.65
2023-03-24T16:50:42.996Z,4.85
2023-03-24T16:53:09.512Z,2.25
2023-03-24T16:55:41.242Z,2.78
2023-03-24T16:58:14.128Z,2.17
2023-03-24T17:00:43.656Z,2.00
2023-03-24T17:03:10.391Z,3.30
2023-03-24T17:05:44.239Z,2.15
2023-03-24T17:08:10.728Z,4.35
2023-03-24T17:10:37.087Z,1.85
2023-03-24T17:13:03.576Z,2.97
2023-03-24T17:15:30.685Z,2.17
2023-03-24T17:17:57.081Z,2.40
2023-03-24T17:20:24.871Z,2.80
2023-03-24T17:22:51.999Z,2.47
2023-03-24T17:25:21.223Z,2.35
2023-03-24T17:27:47.750Z,2.28
2023-03-24T17:30:16.570Z,2.30
2023-03-24T17:32:43.039Z,2.17
2023-03-24T17:35:13.615Z,3.15
2023-03-24T17:37:40.479Z,3.67
2023-03-24T17:40:10.153Z,2.78
2023-03-24T17:42:37.478Z,4.68
2023-03-24T17:45:05.033Z,3.67
2023-03-24T17:47:31.404Z,2.05
2023-03-24T17:49:58.052Z,4.72
2023-03-24T17:52:24.427Z,3.53
2023-03-24T17:54:50.789Z,4.70
2023-03-24T17:57:17.459Z,3.72
2023-03-24T17:59:44.086Z,2.00
2023-03-24T18:02:12.221Z,2.45
2023-03-24T18:04:38.775Z,4.10
2023-03-24T18:07:05.211Z,2.58
2023-03-24T18:09:31.758Z,3.42
2023-03-24T18:11:58.502Z,2.58
2023-03-24T18:14:24.937Z,1.38
2023-03-24T18:16:51.218Z,2.05
2023-03-24T18:19:17.870Z,2.58
2023-03-24T18:21:44.393Z,2.17
2023-03-24T18:24:10.736Z,3.92
2023-03-24T18:26:37.054Z,2.28
2023-03-24T18:29:03.716Z,4.18
2023-03-24T18:31:32.324Z,2.17
2023-03-24T18:33:58.980Z,3.20
2023-03-24T18:36:29.061Z,3.10
2023-03-24T18:39:02.207Z,2.70
2023-03-24T18:41:29.980Z,3.10
2023-03-24T18:43:57.003Z,2.78
2023-03-24T18:46:23.673Z,3.22
2023-03-24T18:48:53.048Z,3.67
2023-03-24T18:51:20.612Z,3.05
2023-03-24T18:53:49.694Z,3.42
2023-03-24T18:56:16.044Z,2.40
2023-03-24T18:58:45.987Z,2.40
2023-03-24T19:01:13.564Z,3.10
2023-03-24T19:03:41.512Z,2.35
2023-03-24T19:06:08.793Z,2.22
2023-03-24T19:08:36.012Z,1.63
2023-03-24T19:11:02.379Z,3.28
2023-03-24T19:13:28.681Z,2.13
2023-03-24T19:15:55.218Z,2.58
2023-03-24T19:18:22.905Z,1.33
2023-03-24T19:20:49.331Z,2.53
2023-03-24T19:23:15.998Z,3.30
2023-03-24T19:25:43.788Z,2.40
2023-03-24T19:28:10.130Z,2.63
2023-03-24T19:30:39.488Z,1.45
2023-03-24T19:33:06.995Z,5.13
2023-03-24T19:35:33.342Z,2.25
2023-03-24T19:38:00.346Z,2.35
2023-03-24T19:40:26.715Z,2.67
2023-03-24T19:42:53.027Z,2.70
2023-03-24T19:45:20.049Z,3.70
2023-03-24T19:47:46.919Z,1.92
2023-03-24T19:50:14.875Z,4.07
2023-03-24T19:52:43.102Z,2.90
2023-03-24T19:55:10.006Z,1.40
2023-03-24T19:57:36.409Z,3.25
2023-03-24T20:00:03.751Z,2.35
2023-03-24T20:02:30.323Z,2.08
2023-03-24T20:04:56.753Z,2.47
2023-03-24T20:07:23.203Z,2.53
2023-03-24T20:09:49.514Z,2.35
2023-03-24T20:12:15.820Z,3.08
2023-03-24T20:14:42.253Z,2.85
2023-03-24T20:17:11.577Z,2.47
2023-03-24T20:19:37.901Z,1.95
2023-03-24T20:22:04.214Z,2.00
2023-03-24T20:24:31.284Z,1.55
2023-03-24T20:26:57.585Z,1.90
2023-03-24T20:29:24.248Z,2.25
2023-03-24T20:31:50.681Z,1.38
2023-03-24T20:34:17.191Z,1.55
2023-03-24T20:36:43.532Z,2.42
2023-03-24T20:39:09.852Z,2.13
2023-03-24T20:41:36.170Z,2.45
2023-03-24T20:44:02.443Z,2.90
2023-03-24T20:46:28.767Z,3.05
2023-03-24T20:48:55.885Z,1.67
2023-03-24T20:51:22.199Z,4.07
2023-03-24T20:53:49.950Z,2.50
2023-03-24T20:56:16.572Z,3.03
2023-03-24T20:58:43.595Z,2.03
2023-03-24T21:01:12.528Z,1.75
2023-03-24T21:03:38.946Z,1.45
2023-03-24T21:06:05.904Z,2.50
2023-03-24T21:08:32.249Z,2.92
2023-03-24T21:10:58.800Z,5.88
2023-03-24T21:13:34.842Z,1.38
2023-03-24T21:16:08.600Z,2.33
2023-03-24T21:18:36.067Z,2.05
2023-03-24T21:21:05.346Z,2.08
2023-03-24T21:23:34.225Z,1.67
2023-03-24T21:26:04.771Z,1.85
2023-03-24T21:28:31.329Z,2.42
2023-03-24T21:30:58.545Z,1.85
2023-03-24T21:33:25.429Z,1.77
2023-03-24T21:35:54.449Z,1.65
2023-03-24T21:38:20.762Z,3.47
2023-03-24T21:40:47.080Z,3.78
2023-03-24T21:43:14.738Z,1.90
2023-03-24T21:45:41.168Z,3.25
2023-03-24T21:48:07.604Z,2.75
2023-03-24T21:50:38.944Z,2.10
2023-03-24T21:53:14.662Z,2.13
2023-03-24T21:55:41.589Z,2.10
2023-03-24T21:58:07.986Z,2.08
2023-03-24T22:00:39.930Z,2.38
2023-03-24T22:03:06.365Z,3.20
2023-03-24T22:05:33.848Z,2.53
2023-03-24T22:08:02.425Z,2.10
2023-03-24T22:10:29.774Z,2.50
2023-03-24T22:12:56.629Z,2.78
2023-03-24T22:15:23.263Z,2.80
2023-03-24T22:17:50.265Z,1.88
2023-03-24T22:20:16.843Z,2.10
2023-03-24T22:22:43.237Z,2.70
2023-03-24T22:25:11.088Z,2.03
2023-03-24T22:27:38.249Z,2.78
2023-03-24T22:30:08.418Z,2.53
2023-03-24T22:32:35.759Z,1.98
2023-03-24T22:35:02.425Z,2.33
2023-03-24T22:37:29.166Z,2.92
2023-03-24T22:39:55.487Z,2.47
2023-03-24T22:42:22.068Z,1.58
2023-03-24T22:44:48.396Z,2.30
2023-03-24T22:47:14.731Z,2.53
2023-03-24T22:49:41.442Z,1.80
2023-03-24T22:52:07.708Z,3.22
2023-03-24T22:54:34.138Z,2.70
2023-03-24T22:57:00.569Z,2.88
2023-03-24T22:59:26.998Z,3.83
2023-03-24T23:02:02.422Z,2.42
2023-03-24T23:04:35.292Z,4.22
2023-03-24T23:07:01.599Z,2.30
2023-03-24T23:09:29.766Z,2.65
2023-03-24T23:11:56.081Z,2.67
2023-03-24T23:14:22.404Z,4.10
2023-03-24T23:16:48.697Z,2.22
2023-03-24T23:19:15.265Z,2.30
2023-03-24T23:21:42.413Z,1.85
2023-03-24T23:24:08.693Z,3.08
2023-03-24T23:26:35.142Z,2.35
2023-03-24T23:29:01.478Z,3.45
2023-03-24T23:31:27.988Z,4.13
2023-03-24T23:33:55.982Z,3.58
2023-03-24T23:36:22.577Z,3.78
2023-03-24T23:38:50.608Z,3.05
2023-03-24T23:41:17.481Z,3.47
2023-03-24T23:43:47.345Z,5.10
2023-03-24T23:46:13.663Z,3.13
2023-03-24T23:48:40.042Z,2.40
2023-03-24T23:51:10.041Z,2.63
2023-03-24T23:53:36.539Z,1.80
2023-03-24T23:56:06.749Z,2.92
2023-03-24T23:58:34.838Z,1.65
